createdAt,value
2019-04-05T00:00:30.661Z,16.90
2019-04-05T00:02:59.659Z,16.90
2019-04-05T00:05:28.837Z,17.00
2019-04-05T00:07:57.893Z,16.90
2019-04-05T00:10:26.971Z,16.90
2019-04-05T00:12:56.362Z,16.90
2019-04-05T00:15:25.421Z,16.90
2019-04-05T00:18:13.705Z,16.90
2019-04-05T00:20:42.816Z,16.90
2019-04-05T00:23:11.893Z,16.90
2019-04-05T00:25:40.875Z,16.80
2019-04-05T00:28:09.879Z,16.90
2019-04-05T00:30:38.843Z,16.80
2019-04-05T00:33:07.949Z,16.90
2019-04-05T00:35:37.563Z,16.80
2019-04-05T00:38:06.648Z,16.80
2019-04-05T00:40:36.098Z,16.80
2019-04-05T00:43:05.160Z,16.80
2019-04-05T00:45:34.295Z,16.80
2019-04-05T00:48:03.261Z,16.70
2019-04-05T00:50:32.275Z,16.70
2019-04-05T00:53:01.399Z,16.70
2019-04-05T00:55:30.359Z,16.70
2019-04-05T00:57:59.273Z,16.70
2019-04-05T01:00:28.775Z,16.70
2019-04-05T01:02:58.238Z,16.70
2019-04-05T01:05:27.421Z,16.60
2019-04-05T01:07:56.795Z,16.60
2019-04-05T01:10:25.816Z,16.70
2019-04-05T01:12:54.754Z,16.60
2019-04-05T01:15:24.158Z,16.60
2019-04-05T01:17:53.873Z,16.50
2019-04-05T01:20:25.113Z,16.50
2019-04-05T01:22:54.449Z,16.50
2019-04-05T01:25:23.357Z,16.50
2019-04-05T01:27:52.382Z,16.50
2019-04-05T01:30:21.493Z,16.40
2019-04-05T01:32:50.607Z,16.40
2019-04-05T01:35:20.761Z,16.40
2019-04-05T01:37:49.756Z,16.40
2019-04-05T01:40:19.157Z,16.40
2019-04-05T01:42:48.555Z,16.40
2019-04-05T01:45:17.584Z,16.40
2019-04-05T01:47:46.827Z,16.40
2019-04-05T01:50:16.359Z,16.30
2019-04-05T01:52:45.787Z,16.30
2019-04-05T01:55:15.735Z,16.30
2019-04-05T01:57:45.014Z,16.30
2019-04-05T02:00:14.374Z,16.30
2019-04-05T02:02:43.410Z,16.30
2019-04-05T02:05:15.707Z,16.30
2019-04-05T02:07:45.031Z,16.30
2019-04-05T02:10:14.559Z,16.30
2019-04-05T02:12:43.837Z,16.20
2019-04-05T02:15:23.855Z,16.20
2019-04-05T02:17:53.215Z,16.30
2019-04-05T02:20:24.309Z,16.20
2019-04-05T02:22:53.241Z,16.20
2019-04-05T02:25:22.349Z,16.20
2019-04-05T02:27:51.627Z,16.20
2019-04-05T02:30:20.844Z,16.20
2019-04-05T02:32:50.026Z,16.20
2019-04-05T02:35:19.373Z,16.10
2019-04-05T02:37:48.635Z,16.10
2019-04-05T02:40:18.205Z,16.10
2019-04-05T02:42:50.514Z,16.20
2019-04-05T02:45:20.437Z,16.10
2019-04-05T02:47:52.928Z,16.10
2019-04-05T02:50:25.260Z,16.10
2019-04-05T02:52:59.317Z,16.10
2019-04-05T02:55:29.345Z,16.10
2019-04-05T02:58:01.322Z,16.10
2019-04-05T03:00:32.478Z,16.10
2019-04-05T03:03:03.955Z,16.10
2019-04-05T03:05:33.770Z,16.00
2019-04-05T03:08:03.048Z,16.00
2019-04-05T03:10:56.073Z,16.00
2019-04-05T03:13:26.850Z,16.00
2019-04-05T03:15:59.317Z,16.00
2019-04-05T03:18:30.622Z,16.00
2019-04-05T03:21:02.995Z,16.00
2019-04-05T03:23:37.667Z,15.90
2019-04-05T03:26:08.583Z,15.90
2019-04-05T03:28:40.527Z,15.90
2019-04-05T03:31:10.062Z,15.90
2019-04-05T03:33:39.167Z,15.90
2019-04-05T03:36:08.522Z,15.90
2019-04-05T03:38:37.632Z,15.90
2019-04-05T03:41:07.042Z,15.90
2019-04-05T03:43:36.708Z,15.90
2019-04-05T03:46:06.297Z,15.90
2019-04-05T03:48:35.493Z,15.90
2019-04-05T03:51:04.630Z,15.80
2019-04-05T03:53:33.694Z,15.80
2019-04-05T03:56:03.181Z,15.80
2019-04-05T03:58:32.363Z,15.80
2019-04-05T04:01:01.629Z,15.80
2019-04-05T04:03:31.029Z,15.80
2019-04-05T04:06:00.208Z,15.70
2019-04-05T04:08:29.562Z,15.70
2019-04-05T04:10:58.892Z,15.70
2019-04-05T04:13:28.227Z,15.80
2019-04-05T04:15:57.552Z,15.70
2019-04-05T04:18:26.904Z,15.70
2019-04-05T04:21:00.619Z,15.70
2019-04-05T04:23:30.788Z,15.70
2019-04-05T04:26:00.059Z,15.70
2019-04-05T04:28:29.533Z,15.60
2019-04-05T04:31:02.207Z,15.60
2019-04-05T04:33:32.523Z,15.70
2019-04-05T04:36:01.965Z,15.60
2019-04-05T04:38:32.056Z,15.60
2019-04-05T04:41:01.936Z,15.60
2019-04-05T04:43:31.264Z,15.60
2019-04-05T04:46:01.095Z,15.60
2019-04-05T04:48:31.367Z,15.60
2019-04-05T04:51:00.975Z,15.50
2019-04-05T04:53:30.519Z,15.50
2019-04-05T04:55:59.773Z,15.50
2019-04-05T04:58:28.922Z,15.40
2019-04-05T05:01:01.984Z,15.40
2019-04-05T05:03:34.134Z,15.50
2019-04-05T05:06:04.515Z,15.50
2019-04-05T05:08:49.388Z,15.50
2019-04-05T05:11:20.826Z,15.60
2019-04-05T05:13:49.932Z,15.60
2019-04-05T05:16:19.374Z,15.60
2019-04-05T05:19:03.559Z,15.60
2019-04-05T05:21:33.177Z,15.60
2019-04-05T05:24:03.077Z,15.60
2019-04-05T05:26:32.793Z,15.60
2019-04-05T05:29:02.044Z,15.70
2019-04-05T05:31:31.281Z,15.60
2019-04-05T05:34:00.810Z,15.70
2019-04-05T05:36:30.179Z,15.70
2019-04-05T05:38:59.642Z,15.70
2019-04-05T05:41:29.058Z,15.70
2019-04-05T05:43:58.181Z,15.70
2019-04-05T05:46:27.250Z,15.80
2019-04-05T05:48:56.688Z,15.80
2019-04-05T05:51:25.730Z,15.80
2019-04-05T05:53:54.811Z,15.80
2019-04-05T05:56:23.792Z,15.70
2019-04-05T05:58:58.867Z,15.80
2019-04-05T06:01:25.183Z,15.80
2019-04-05T06:03:54.298Z,15.80
2019-04-05T06:06:23.350Z,15.70
2019-04-05T06:08:59.089Z,15.70
2019-04-05T06:11:28.330Z,15.70
2019-04-05T06:13:57.804Z,15.80
2019-04-05T06:16:28.132Z,15.80
2019-04-05T06:18:57.332Z,15.80
2019-04-05T06:21:26.430Z,15.80
2019-04-05T06:23:55.622Z,15.80
2019-04-05T06:26:24.660Z,15.80
2019-04-05T06:28:54.562Z,15.80
2019-04-05T06:31:24.924Z,15.90
2019-04-05T06:33:54.662Z,15.90
2019-04-05T06:36:24.969Z,15.90
2019-04-05T06:38:54.599Z,15.80
2019-04-05T06:41:28.492Z,15.80
2019-04-05T06:44:02.620Z,15.80
2019-04-05T06:46:32.231Z,15.90
2019-04-05T06:49:01.583Z,15.90
2019-04-05T06:51:30.619Z,15.90
2019-04-05T06:53:59.714Z,15.90
2019-04-05T06:56:29.720Z,15.90
2019-04-05T06:58:58.707Z,15.90
2019-04-05T07:01:27.878Z,15.90
2019-04-05T07:03:57.351Z,15.90
2019-04-05T07:06:26.901Z,16.00
2019-04-05T07:08:56.294Z,16.00
2019-04-05T07:11:25.360Z,16.00
2019-04-05T07:13:56.495Z,16.00
2019-04-05T07:16:25.591Z,16.00
2019-04-05T07:18:54.892Z,16.10
2019-04-05T07:21:23.970Z,16.10
2019-04-05T07:23:53.166Z,16.10
2019-04-05T07:26:22.472Z,16.00
2019-04-05T07:28:52.859Z,16.00
2019-04-05T07:31:22.084Z,16.00
2019-04-05T07:33:52.743Z,15.90
2019-04-05T07:36:22.258Z,15.90
2019-04-05T07:38:51.537Z,15.90
2019-04-05T07:41:20.528Z,15.90
2019-04-05T07:43:49.701Z,15.90
2019-04-05T07:46:18.758Z,15.90
2019-04-05T07:48:49.881Z,15.80
2019-04-05T07:51:23.683Z,15.80
2019-04-05T07:53:52.820Z,15.80
2019-04-05T07:56:22.085Z,15.80
2019-04-05T07:58:53.832Z,15.80
2019-04-05T08:01:23.508Z,15.80
2019-04-05T08:03:52.527Z,15.80
2019-04-05T08:06:21.615Z,15.80
2019-04-05T08:08:58.090Z,15.80
2019-04-05T08:11:29.042Z,15.80
2019-04-05T08:14:00.890Z,15.80
2019-04-05T08:16:30.538Z,15.80
2019-04-05T08:19:00.560Z,15.90
2019-04-05T08:21:30.082Z,15.80
2019-04-05T08:23:59.241Z,15.80
2019-04-05T08:26:29.082Z,15.80
2019-04-05T08:28:58.117Z,15.70
2019-04-05T08:31:27.118Z,15.70
2019-04-05T08:33:56.363Z,15.70
2019-04-05T08:36:25.458Z,15.70
2019-04-05T08:38:54.496Z,15.70
2019-04-05T08:41:23.782Z,15.70
2019-04-05T08:43:53.032Z,15.70
2019-04-05T08:46:22.160Z,15.60
2019-04-05T08:48:52.424Z,15.60
2019-04-05T08:51:21.687Z,15.60
2019-04-05T08:53:50.877Z,15.60
2019-04-05T08:56:20.286Z,15.60
2019-04-05T08:58:49.471Z,15.50
2019-04-05T09:01:21.647Z,15.50
2019-04-05T09:03:50.839Z,15.60
2019-04-05T09:06:22.121Z,15.60
2019-04-05T09:08:51.463Z,15.60
2019-04-05T09:11:20.687Z,15.60
2019-04-05T09:13:52.377Z,15.60
2019-04-05T09:16:21.954Z,15.50
2019-04-05T09:18:51.114Z,15.50
2019-04-05T09:21:20.377Z,15.50
2019-04-05T09:23:49.443Z,15.50
2019-04-05T09:26:18.588Z,15.50
2019-04-05T09:28:48.275Z,15.50
2019-04-05T09:31:17.647Z,15.50
2019-04-05T09:33:46.838Z,15.50
2019-04-05T09:36:18.305Z,15.50
2019-04-05T09:38:47.850Z,15.50
2019-04-05T09:41:17.325Z,15.30
2019-04-05T09:46:46.441Z,15.40
2019-04-05T09:49:10.540Z,15.40
2019-04-05T09:51:39.604Z,15.40
2019-04-05T09:54:08.716Z,15.40
2019-04-05T09:56:37.924Z,15.40
2019-04-05T09:59:06.989Z,15.40
2019-04-05T10:01:36.084Z,15.40
2019-04-05T10:04:05.227Z,15.40
2019-04-05T10:06:34.376Z,15.30
2019-04-05T10:09:04.802Z,15.30
2019-04-05T10:11:34.691Z,15.30
2019-04-05T10:14:03.860Z,15.30
2019-04-05T10:16:32.994Z,15.30
2019-04-05T10:19:02.409Z,15.30
2019-04-05T10:21:31.674Z,15.30
2019-04-05T10:24:00.619Z,15.10
2019-04-05T10:26:29.965Z,15.10
2019-04-05T10:28:59.176Z,15.00
2019-04-05T10:31:28.471Z,15.00
2019-04-05T10:33:57.657Z,15.00
2019-04-05T10:36:27.878Z,15.00
2019-04-05T10:38:57.104Z,15.00
2019-04-05T10:41:26.373Z,15.00
2019-04-05T10:43:58.229Z,15.00
2019-04-05T10:46:26.261Z,15.10
2019-04-05T10:49:05.026Z,15.10
2019-04-05T10:51:34.109Z,15.20
2019-04-05T10:54:03.230Z,15.10
2019-04-05T10:56:32.230Z,15.10
2019-04-05T10:59:01.664Z,14.80
2019-04-05T11:01:30.942Z,14.80
2019-04-05T11:04:00.823Z,14.80
2019-04-05T11:06:30.182Z,14.90
2019-04-05T11:08:59.222Z,15.00
2019-04-05T11:11:28.830Z,15.10
2019-04-05T11:13:57.834Z,15.10
2019-04-05T11:16:26.925Z,15.20
2019-04-05T11:19:02.284Z,15.20
2019-04-05T11:21:32.074Z,15.20
2019-04-05T11:24:01.770Z,15.30
2019-04-05T11:26:39.231Z,15.30
2019-04-05T11:29:07.904Z,15.40
2019-04-05T11:31:56.781Z,15.40
2019-04-05T11:34:19.563Z,15.50
2019-04-05T11:36:48.847Z,15.60
2019-04-05T11:39:20.251Z,15.70
2019-04-05T11:41:52.173Z,15.80
2019-04-05T11:44:22.655Z,15.80
2019-04-05T11:46:52.554Z,15.90
2019-04-05T11:49:22.295Z,15.90
2019-04-05T11:51:51.389Z,15.90
2019-04-05T11:54:20.459Z,16.00
2019-04-05T11:56:49.985Z,16.10
2019-04-05T11:59:19.530Z,16.10
2019-04-05T12:02:07.931Z,16.20
2019-04-05T12:04:37.409Z,16.20
2019-04-05T12:07:07.288Z,16.40
2019-04-05T12:09:36.317Z,16.40
2019-04-05T12:12:05.520Z,16.50
2019-04-05T12:14:36.709Z,16.60
2019-04-05T12:17:06.199Z,16.60
2019-04-05T12:19:38.150Z,16.70
2019-04-05T12:22:09.138Z,16.70
2019-04-05T12:24:38.607Z,16.80
2019-04-05T12:27:08.141Z,16.80
2019-04-05T12:29:37.438Z,16.90
2019-04-05T12:32:07.017Z,16.90
2019-04-05T12:34:36.628Z,16.90
2019-04-05T12:37:06.204Z,17.00
2019-04-05T12:39:37.167Z,17.00
2019-04-05T12:42:06.364Z,17.10
2019-04-05T12:44:35.524Z,17.10
2019-04-05T12:47:04.997Z,17.10
2019-04-05T12:49:34.069Z,17.20
2019-04-05T12:52:03.247Z,17.20
2019-04-05T12:54:32.518Z,17.30
2019-04-05T12:57:01.784Z,17.30
2019-04-05T12:59:31.319Z,17.30
2019-04-05T13:02:00.609Z,17.40
2019-04-05T13:04:29.768Z,17.40
2019-04-05T13:07:03.954Z,17.40
2019-04-05T13:09:33.131Z,17.30
2019-04-05T13:12:02.229Z,17.30
2019-04-05T13:14:36.659Z,17.40
2019-04-05T13:17:06.918Z,17.40
2019-04-05T13:19:36.905Z,17.50
2019-04-05T13:22:06.554Z,17.50
2019-04-05T13:24:39.390Z,17.60
2019-04-05T13:27:06.935Z,17.60
2019-04-05T13:29:36.205Z,17.50
2019-04-05T13:32:06.437Z,17.50
2019-04-05T13:34:35.626Z,17.50
2019-04-05T13:37:04.910Z,17.50
2019-04-05T13:39:34.308Z,17.60
2019-04-05T13:42:04.196Z,17.60
2019-04-05T13:44:33.527Z,17.60
2019-04-05T13:47:03.031Z,17.70
2019-04-05T13:49:32.487Z,17.70
2019-04-05T13:52:01.749Z,17.70
2019-04-05T13:54:31.157Z,17.70
2019-04-05T13:57:00.501Z,17.60
2019-04-05T13:59:29.721Z,17.70
2019-04-05T14:02:06.002Z,17.70
2019-04-05T14:04:29.995Z,17.70
2019-04-05T14:06:59.187Z,17.70
2019-04-05T14:09:28.395Z,17.80
2019-04-05T14:11:57.569Z,17.80
2019-04-05T14:14:28.387Z,17.80
2019-04-05T14:16:58.260Z,17.80
2019-04-05T14:19:28.987Z,17.80
2019-04-05T14:22:08.208Z,17.90
2019-04-05T14:24:31.010Z,17.90
2019-04-05T14:27:02.931Z,17.90
2019-04-05T14:29:33.182Z,18.00
2019-04-05T14:32:19.474Z,18.00
2019-04-05T14:34:36.447Z,18.00
2019-04-05T14:37:05.694Z,18.10
2019-04-05T14:39:34.918Z,18.10
2019-04-05T14:42:10.128Z,18.20
2019-04-05T14:44:35.081Z,18.20
2019-04-05T14:47:04.290Z,18.20
2019-04-05T14:49:33.382Z,18.30
2019-04-05T14:52:02.511Z,18.20
2019-04-05T14:54:31.897Z,18.20
2019-04-05T14:57:05.486Z,18.20
2019-04-05T14:59:32.882Z,18.30
2019-04-05T15:02:02.270Z,18.30
2019-04-05T15:04:31.588Z,18.40
2019-04-05T15:07:01.429Z,18.40
2019-04-05T15:09:30.514Z,18.40
2019-04-05T15:11:59.898Z,18.40
2019-04-05T15:14:29.112Z,18.40
2019-04-05T15:16:58.433Z,18.40
2019-04-05T15:19:27.701Z,18.40
2019-04-05T15:22:05.648Z,18.40
2019-04-05T15:24:29.103Z,18.30
2019-04-05T15:26:58.239Z,18.30
2019-04-05T15:29:27.317Z,18.30
2019-04-05T15:31:58.143Z,18.30
2019-04-05T15:34:29.175Z,18.30
2019-04-05T15:37:01.670Z,18.20
2019-04-05T15:39:32.293Z,18.20
2019-04-05T15:42:05.604Z,18.20
2019-04-05T15:44:34.944Z,18.10
2019-04-05T15:47:06.193Z,18.10
2019-04-05T15:49:35.892Z,18.00
2019-04-05T15:52:18.136Z,17.90
2019-04-05T15:54:37.853Z,17.70
2019-04-05T15:57:07.166Z,17.70
2019-04-05T15:59:36.231Z,17.70
2019-04-05T16:02:05.440Z,17.70
2019-04-05T16:04:35.764Z,17.70
2019-04-05T16:07:05.033Z,17.70
2019-04-05T16:09:34.420Z,17.70
2019-04-05T16:12:03.562Z,17.60
2019-04-05T16:14:40.592Z,17.60
2019-04-05T16:17:12.441Z,17.40
2019-04-05T16:19:40.515Z,17.40
2019-04-05T16:22:09.644Z,17.50
2019-04-05T16:24:38.826Z,17.40
2019-04-05T16:27:08.626Z,17.40
2019-04-05T16:29:37.732Z,17.40
2019-04-05T16:32:07.195Z,17.30
2019-04-05T16:34:36.170Z,17.30
2019-04-05T16:37:05.536Z,17.30
2019-04-05T16:39:38.184Z,17.30
2019-04-05T16:42:10.111Z,17.20
2019-04-05T16:44:38.492Z,17.20
2019-04-05T16:47:08.378Z,17.10
2019-04-05T16:49:38.231Z,16.90
2019-04-05T16:52:07.601Z,16.90
2019-04-05T16:54:37.102Z,16.90
2019-04-05T16:57:07.323Z,16.90
2019-04-05T16:59:37.645Z,16.70
2019-04-05T17:02:07.239Z,16.70
2019-04-05T17:04:36.524Z,16.70
2019-04-05T17:07:05.706Z,16.60
2019-04-05T17:09:34.829Z,16.60
2019-04-05T17:12:03.943Z,16.50
2019-04-05T17:14:33.272Z,16.60
2019-04-05T17:17:02.464Z,16.60
2019-04-05T17:19:31.672Z,16.60
2019-04-05T17:22:00.985Z,16.60
2019-04-05T17:24:30.327Z,16.60
2019-04-05T17:26:59.745Z,16.50
2019-04-05T17:29:29.089Z,16.50
2019-04-05T17:31:58.286Z,16.50
2019-04-05T17:34:27.592Z,16.50
2019-04-05T17:36:57.007Z,16.50
2019-04-05T17:39:26.662Z,16.40
2019-04-05T17:41:57.535Z,16.30
2019-04-05T17:44:26.769Z,16.20
2019-04-05T17:46:56.251Z,16.20
2019-04-05T17:49:26.711Z,16.10
2019-04-05T17:51:56.273Z,16.00
2019-04-05T17:54:25.940Z,15.90
2019-04-05T17:56:55.073Z,15.80
2019-04-05T17:59:24.396Z,15.80
2019-04-05T18:01:53.507Z,15.70
2019-04-05T18:04:22.734Z,15.60
2019-04-05T18:06:51.955Z,15.60
2019-04-05T18:09:21.108Z,15.60
2019-04-05T18:11:50.439Z,15.50
2019-04-05T18:14:19.605Z,15.50
2019-04-05T18:16:48.797Z,15.60
2019-04-05T18:19:17.942Z,15.50
2019-04-05T18:21:47.075Z,15.60
2019-04-05T18:24:16.293Z,15.50
2019-04-05T18:26:45.443Z,15.50
2019-04-05T18:29:14.482Z,15.50
2019-04-05T18:31:43.987Z,15.60
2019-04-05T18:34:13.075Z,15.60
2019-04-05T18:36:42.185Z,15.50
2019-04-05T18:39:11.689Z,15.50
2019-04-05T18:41:40.839Z,15.50
2019-04-05T18:44:10.299Z,15.50
2019-04-05T18:46:39.726Z,15.50
2019-04-05T18:49:11.614Z,15.50
2019-04-05T18:51:41.104Z,15.50
2019-04-05T18:54:10.474Z,15.50
2019-04-05T18:56:41.247Z,15.50
2019-04-05T18:59:10.375Z,15.50
2019-04-05T19:01:40.043Z,15.50
2019-04-05T19:04:09.121Z,15.50
2019-04-05T19:06:38.543Z,15.40
2019-04-05T19:09:08.353Z,15.40
2019-04-05T19:11:37.724Z,15.50
2019-04-05T19:14:06.940Z,15.40
2019-04-05T19:16:38.181Z,15.40
2019-04-05T19:19:07.722Z,15.40
2019-04-05T19:21:36.998Z,15.40
2019-04-05T19:24:06.437Z,15.40
2019-04-05T19:26:36.562Z,15.40
2019-04-05T19:29:06.184Z,15.40
2019-04-05T19:49:16.597Z,15.50
2019-04-05T19:51:45.822Z,15.50
2019-04-05T19:54:15.115Z,15.40
2019-04-05T19:56:44.895Z,15.40
2019-04-05T19:59:14.069Z,15.40
2019-04-05T20:01:43.234Z,15.40
2019-04-05T20:04:12.250Z,15.40
2019-04-05T20:06:41.622Z,15.30
2019-04-05T20:09:10.973Z,15.30
2019-04-05T20:11:40.253Z,15.30
2019-04-05T20:14:09.438Z,15.30
2019-04-05T20:16:38.838Z,15.20
2019-04-05T20:19:07.923Z,15.20
2019-04-05T20:21:37.587Z,15.20
2019-04-05T20:24:14.206Z,15.20
2019-04-05T20:26:37.603Z,15.20
2019-04-05T20:29:06.986Z,15.10
2019-04-05T20:31:36.178Z,15.20
2019-04-05T20:34:14.694Z,15.10
2019-04-05T20:36:44.003Z,15.20
2019-04-05T20:39:13.410Z,15.20
2019-04-05T20:41:42.477Z,15.20
2019-04-05T20:44:11.623Z,15.20
2019-04-05T20:46:40.820Z,15.20
2019-04-05T20:49:11.917Z,15.20
2019-04-05T20:51:41.420Z,15.20
2019-04-05T20:54:11.655Z,15.30
2019-04-05T20:56:40.827Z,15.30
2019-04-05T20:59:10.059Z,15.30
2019-04-05T21:01:39.581Z,15.30
2019-04-05T21:04:08.637Z,15.30
2019-04-05T21:06:37.884Z,15.30
2019-04-05T21:09:08.401Z,15.30
2019-04-05T21:11:37.772Z,15.30
2019-04-05T21:14:06.830Z,15.30
2019-04-05T21:16:35.919Z,15.30
2019-04-05T21:19:05.168Z,15.30
2019-04-05T21:21:37.504Z,15.30
2019-04-05T21:24:06.711Z,15.20
2019-04-05T21:26:35.743Z,15.20
2019-04-05T21:29:04.976Z,15.20
2019-04-05T21:31:34.542Z,15.20
2019-04-05T21:34:03.764Z,15.20
2019-04-05T21:36:32.825Z,15.20
2019-04-05T21:39:02.238Z,15.20
2019-04-05T21:41:31.375Z,15.20
2019-04-05T21:44:00.643Z,15.20
2019-04-05T21:46:32.180Z,15.10
2019-04-05T21:49:01.282Z,15.10
2019-04-05T21:51:30.474Z,15.10
2019-04-05T21:53:59.666Z,15.10
2019-04-05T21:56:29.012Z,15.10
2019-04-05T21:58:58.216Z,15.10
2019-04-05T22:01:27.569Z,15.00
2019-04-05T22:03:57.406Z,15.00
2019-04-05T22:06:26.684Z,14.90
2019-04-05T22:08:56.224Z,14.90
2019-04-05T22:11:27.636Z,14.90
2019-04-05T22:13:57.307Z,14.90
2019-04-05T22:16:27.303Z,14.90
2019-04-05T22:18:56.418Z,14.90
2019-04-05T22:21:25.923Z,14.90
2019-04-05T22:23:56.446Z,14.90
2019-04-05T22:26:25.520Z,14.90
2019-04-05T22:28:54.450Z,14.80
2019-04-05T22:31:23.474Z,14.80
2019-04-05T22:33:52.519Z,14.90
2019-04-05T22:36:21.636Z,14.90
2019-04-05T22:38:50.868Z,14.90
2019-04-05T22:41:20.310Z,14.90
2019-04-05T22:43:51.714Z,15.00
2019-04-05T22:46:20.760Z,15.00
2019-04-05T22:48:49.905Z,15.00
2019-04-05T22:51:18.974Z,15.00
2019-04-05T22:53:48.050Z,15.00
2019-04-05T22:56:17.162Z,15.00
2019-04-05T22:58:47.293Z,15.00
2019-04-05T23:01:16.364Z,15.00
2019-04-05T23:03:45.382Z,15.00
2019-04-05T23:06:14.425Z,15.00
2019-04-05T23:08:43.554Z,15.00
2019-04-05T23:11:12.789Z,15.00
2019-04-05T23:13:42.126Z,15.00
2019-04-05T23:16:11.233Z,15.00
2019-04-05T23:18:40.215Z,15.00
2019-04-05T23:21:09.216Z,15.00
2019-04-05T23:23:38.200Z,15.00
2019-04-05T23:26:07.234Z,15.00
2019-04-05T23:28:36.328Z,15.00
2019-04-05T23:31:05.374Z,15.00
2019-04-05T23:33:34.433Z,15.00
2019-04-05T23:36:03.733Z,15.10
2019-04-05T23:38:32.946Z,15.10
2019-04-05T23:41:04.281Z,15.10
2019-04-05T23:43:33.554Z,15.00
2019-04-05T23:46:02.602Z,15.10
2019-04-05T23:48:31.740Z,15.10
2019-04-05T23:51:01.598Z,15.10
2019-04-05T23:53:30.639Z,15.10
2019-04-05T23:55:59.528Z,15.10
2019-04-05T23:58:28.789Z,15.10
